Time;durP1;ratioP1;P1;durP2;ratioP2;P2;SDS_P1;SDS_P2;PMS_P1;PMS_P2;Temp;Humidity;BMP_temperature;BMP_pressure;BME280_temperature;BME280_humidity;BME280_pressure;Samples;Min_cycle;Max_cycle;Signal;HPM_P1;HPM_P2
2024/01/10 00:02:04;;;;;;;16.80;8.65;;;-3.70;99.90;;;;;;5076179;28;20047;-39
2024/01/10 00:04:29;;;;;;;15.35;8.52;;;-3.70;99.90;;;;;;5076296;28;20040;-39
2024/01/10 00:06:55;;;;;;;18.23;8.70;;;-3.70;99.90;;;;;;5076232;28;20056;-39
2024/01/10 00:09:21;;;;;;;17.30;9.27;;;-3.70;99.90;;;;;;5074906;28;20135;-39
2024/01/10 00:11:46;;;;;;;15.45;9.00;;;-3.80;99.90;;;;;;5076380;28;20131;-39
2024/01/10 00:14:12;;;;;;;16.45;9.82;;;-3.80;99.90;;;;;;5076337;28;20064;-39
2024/01/10 00:16:38;;;;;;;17.75;9.35;;;-3.80;99.90;;;;;;5076206;28;20399;-39
2024/01/10 00:19:04;;;;;;;17.80;9.13;;;-3.80;99.90;;;;;;5076046;28;20070;-39
2024/01/10 00:21:30;;;;;;;18.60;10.00;;;-3.80;99.90;;;;;;5076034;28;20428;-39
2024/01/10 00:23:55;;;;;;;18.58;10.27;;;-3.90;99.90;;;;;;5058075;28;20044;-39
2024/01/10 00:26:21;;;;;;;22.52;11.35;;;-3.80;99.90;;;;;;5075902;28;20036;-39
2024/01/10 00:28:46;;;;;;;17.08;9.57;;;-3.80;99.90;;;;;;5075915;28;20106;-39
2024/01/10 00:31:13;;;;;;;18.65;9.57;;;-3.80;99.90;;;;;;5076200;28;20502;-39
2024/01/10 00:33:39;;;;;;;18.50;10.40;;;-3.90;99.90;;;;;;5091346;28;20045;-39
2024/01/10 00:36:06;;;;;;;18.70;10.77;;;-3.90;99.90;;;;;;5075652;28;20150;-39
2024/01/10 00:38:32;;;;;;;20.95;11.30;;;-3.90;99.90;;;;;;5075480;28;20061;-39
2024/01/10 00:40:57;;;;;;;19.05;10.30;;;-3.90;99.90;;;;;;5075689;28;20048;-39
2024/01/10 00:43:23;;;;;;;18.10;9.82;;;-3.90;99.90;;;;;;5075954;28;20040;-39
2024/01/10 00:45:49;;;;;;;20.05;11.00;;;-3.80;99.90;;;;;;5075550;28;20060;-39
2024/01/10 00:48:14;;;;;;;20.73;10.50;;;-3.80;99.90;;;;;;5075629;28;20044;-39
2024/01/10 00:50:40;;;;;;;20.60;11.38;;;-3.80;99.90;;;;;;5075356;28;20475;-39
2024/01/10 00:53:06;;;;;;;21.52;11.48;;;-3.80;99.90;;;;;;5075244;28;20070;-39
2024/01/10 00:55:31;;;;;;;18.25;11.30;;;-3.70;99.90;;;;;;5074569;28;20498;-39
2024/01/10 00:57:57;;;;;;;22.55;12.55;;;-3.80;99.90;;;;;;5074001;28;20115;-39
2024/01/10 01:00:23;;;;;;;21.75;11.70;;;-3.70;99.90;;;;;;5074045;28;20080;-39
2024/01/10 01:02:49;;;;;;;22.77;12.82;;;-3.70;99.90;;;;;;5075029;28;20105;-39
2024/01/10 01:05:14;;;;;;;21.45;11.25;;;-3.70;99.90;;;;;;5075083;28;20101;-39
2024/01/10 01:07:40;;;;;;;22.92;12.32;;;-3.60;99.90;;;;;;5075074;28;20052;-39
2024/01/10 01:10:08;;;;;;;24.23;12.77;;;-3.70;99.90;;;;;;5075081;28;20049;-39
2024/01/10 01:12:34;;;;;;;23.88;14.55;;;-3.70;99.90;;;;;;5075329;28;20098;-39
2024/01/10 01:15:00;;;;;;;27.17;13.13;;;-3.70;99.90;;;;;;5074634;28;20056;-39
2024/01/10 01:17:25;;;;;;;23.17;13.57;;;-3.70;99.90;;;;;;5074913;28;20485;-40
2024/01/10 01:19:51;;;;;;;19.73;12.23;;;-3.70;99.90;;;;;;5074748;28;20052;-39
2024/01/10 01:22:17;;;;;;;23.20;12.90;;;-3.70;99.90;;;;;;5074648;28;20044;-39
2024/01/10 01:24:43;;;;;;;23.45;13.20;;;-3.70;99.90;;;;;;5075052;28;20045;-39
2024/01/10 01:27:09;;;;;;;25.48;13.52;;;-3.70;99.90;;;;;;5075197;28;20075;-39
2024/01/10 01:29:34;;;;;;;23.23;13.48;;;-3.70;99.90;;;;;;5074698;28;20045;-39
2024/01/10 01:32:00;;;;;;;25.17;13.70;;;-3.70;99.90;;;;;;5074412;28;20040;-39
2024/01/10 01:34:26;;;;;;;23.55;13.40;;;-3.70;99.90;;;;;;5073405;28;20050;-39
2024/01/10 01:36:51;;;;;;;24.20;13.27;;;-3.70;99.90;;;;;;5074434;28;20150;-40
2024/01/10 01:39:18;;;;;;;24.77;13.40;;;-3.80;99.90;;;;;;5074748;28;20052;-39
2024/01/10 01:41:44;;;;;;;21.20;12.90;;;-3.80;99.90;;;;;;5074726;28;20149;-39
2024/01/10 01:44:09;;;;;;;23.55;13.43;;;-3.80;99.90;;;;;;5074368;28;20506;-39
2024/01/10 01:46:35;;;;;;;25.98;13.68;;;-3.80;99.90;;;;;;5074199;28;20131;-39
2024/01/10 01:49:01;;;;;;;23.08;12.32;;;-3.80;99.90;;;;;;5074195;28;20139;-39
2024/01/10 01:51:29;;;;;;;24.05;12.98;;;-3.90;99.90;;;;;;5073908;28;20048;-39
2024/01/10 01:53:55;;;;;;;22.20;12.93;;;-3.90;99.90;;;;;;5074450;28;20054;-39
2024/01/10 01:56:21;;;;;;;22.58;12.52;;;-3.90;99.90;;;;;;5073427;28;20048;-39
2024/01/10 01:58:50;;;;;;;26.35;13.07;;;-4.00;99.90;;;;;;5073043;28;20052;-39
2024/01/10 02:01:16;;;;;;;24.83;12.93;;;-4.00;99.90;;;;;;5074181;28;20106;-39
2024/01/10 02:03:42;;;;;;;24.20;12.52;;;-4.00;99.90;;;;;;5074081;28;20041;-39
2024/01/10 02:06:08;;;;;;;24.55;12.93;;;-4.00;99.90;;;;;;5073895;28;20044;-39
2024/01/10 02:08:34;;;;;;;23.83;12.57;;;-4.00;99.90;;;;;;5072809;28;20087;-39
2024/01/10 02:11:04;;;;;;;25.42;12.85;;;-4.10;99.90;;;;;;5072684;28;20037;-39
2024/01/10 02:13:32;;;;;;;25.38;14.07;;;-4.10;99.90;;;;;;5073918;28;20051;-39
2024/01/10 02:15:59;;;;;;;23.98;13.05;;;-4.10;99.90;;;;;;5073400;28;20052;-39
2024/01/10 02:18:24;;;;;;;24.92;14.52;;;-4.10;99.90;;;;;;5073619;28;20048;-39
2024/01/10 02:20:51;;;;;;;26.10;13.52;;;-4.10;99.90;;;;;;5055866;28;20439;-39
2024/01/10 02:23:17;;;;;;;24.73;13.25;;;-4.10;99.90;;;;;;5072975;28;20143;-39
2024/01/10 02:25:43;;;;;;;26.90;13.52;;;-4.10;99.90;;;;;;5073546;28;20136;-40
2024/01/10 02:28:09;;;;;;;21.13;12.63;;;-4.10;99.90;;;;;;5074113;28;20056;-39
2024/01/10 02:30:35;;;;;;;24.35;12.82;;;-4.10;99.90;;;;;;5073657;28;20626;-39
2024/01/10 02:33:01;;;;;;;25.38;13.77;;;-4.10;99.90;;;;;;5073632;28;20089;-39
2024/01/10 02:35:27;;;;;;;25.52;13.38;;;-4.10;99.90;;;;;;5073422;28;20048;-39
2024/01/10 02:37:54;;;;;;;24.40;14.13;;;-4.10;99.90;;;;;;5073709;28;20044;-39
2024/01/10 02:40:20;;;;;;;24.30;14.43;;;-4.20;99.90;;;;;;5073863;28;20067;-39
2024/01/10 02:42:46;;;;;;;26.42;13.63;;;-4.10;99.90;;;;;;5073456;28;20056;-39
2024/01/10 02:45:12;;;;;;;25.67;13.90;;;-4.10;99.90;;;;;;5072138;28;20048;-40
2024/01/10 02:47:38;;;;;;;23.50;13.37;;;-4.10;99.90;;;;;;5073593;28;20041;-39
2024/01/10 02:50:05;;;;;;;25.85;13.98;;;-4.10;99.90;;;;;;5073182;28;20106;-39
2024/01/10 02:52:31;;;;;;;27.33;14.68;;;-4.10;99.90;;;;;;5073436;28;20041;-39
2024/01/10 02:54:57;;;;;;;26.13;13.35;;;-4.20;99.90;;;;;;5072547;28;20048;-39
2024/01/10 02:57:22;;;;;;;27.20;13.40;;;-4.20;99.90;;;;;;5073345;28;20056;-39
2024/01/10 02:59:48;;;;;;;26.83;14.35;;;-4.20;99.90;;;;;;5073427;28;20056;-39
2024/01/10 03:02:14;;;;;;;28.50;14.77;;;-4.20;99.90;;;;;;5073239;28;20047;-39
2024/01/10 03:04:41;;;;;;;26.35;13.60;;;-4.20;99.90;;;;;;5073046;28;20484;-39
2024/01/10 03:07:07;;;;;;;24.95;13.93;;;-4.20;99.90;;;;;;5073371;28;20115;-39
2024/01/10 03:09:33;;;;;;;26.40;13.45;;;-4.20;99.90;;;;;;5073338;28;20044;-39
2024/01/10 03:11:58;;;;;;;26.83;14.18;;;-4.20;99.90;;;;;;5073156;28;20479;-39
2024/01/10 03:14:24;;;;;;;26.67;13.55;;;-4.20;99.90;;;;;;5073127;28;20114;-39
2024/01/10 03:16:50;;;;;;;24.98;13.70;;;-4.20;99.90;;;;;;5073141;28;20471;-39
2024/01/10 03:19:16;;;;;;;21.70;12.27;;;-4.20;99.90;;;;;;5074541;28;20045;-39
2024/01/10 03:21:41;;;;;;;24.95;14.10;;;-4.20;99.90;;;;;;5077449;28;20108;-39
2024/01/10 03:24:07;;;;;;;24.73;14.10;;;-4.20;99.90;;;;;;5075985;28;20088;-39
2024/01/10 03:26:33;;;;;;;28.25;14.82;;;-4.20;99.90;;;;;;5077014;28;20140;-39
2024/01/10 03:29:00;;;;;;;26.08;15.20;;;-4.20;99.90;;;;;;5076966;28;20124;-39
2024/01/10 03:31:28;;;;;;;25.20;12.93;;;-4.20;99.90;;;;;;5076832;28;20049;-39
2024/01/10 03:33:53;;;;;;;24.60;14.00;;;-4.10;99.90;;;;;;5076489;28;20195;-39
2024/01/10 03:36:19;;;;;;;26.63;13.43;;;-4.20;99.90;;;;;;5076845;28;20174;-39
2024/01/10 03:38:45;;;;;;;26.23;14.38;;;-4.10;99.90;;;;;;5076861;28;20423;-39
2024/01/10 03:41:15;;;;;;;24.45;13.10;;;-4.10;99.90;;;;;;5076752;28;20055;-39
2024/01/10 03:43:40;;;;;;;24.42;13.25;;;-4.10;99.90;;;;;;5076713;28;20044;-39
2024/01/10 03:46:06;;;;;;;24.92;13.65;;;-4.10;99.90;;;;;;5076596;28;20059;-40
2024/01/10 03:48:32;;;;;;;22.92;13.25;;;-4.10;99.90;;;;;;5077038;28;20044;-39
2024/01/10 03:50:57;;;;;;;26.42;13.65;;;-4.10;99.90;;;;;;5076397;28;20049;-39
2024/01/10 03:53:23;;;;;;;23.50;13.30;;;-4.10;99.90;;;;;;5076240;28;20562;-39
2024/01/10 03:55:49;;;;;;;23.05;13.25;;;-4.00;99.90;;;;;;5076336;28;20552;-39
2024/01/10 03:58:14;;;;;;;22.80;12.57;;;-4.10;99.90;;;;;;5058749;28;20041;-39
2024/01/10 04:00:40;;;;;;;23.13;13.00;;;-4.10;99.90;;;;;;5076258;28;20119;-39
2024/01/10 04:03:06;;;;;;;25.23;14.32;;;-4.10;99.90;;;;;;5076155;28;20087;-39
2024/01/10 04:05:31;;;;;;;26.27;14.25;;;-4.10;99.90;;;;;;5075119;28;20575;-39
2024/01/10 04:07:57;;;;;;;27.20;15.90;;;-4.10;99.90;;;;;;5076371;28;20080;-39
2024/01/10 04:10:23;;;;;;;29.67;15.23;;;-4.00;99.90;;;;;;5076458;28;20590;-39
2024/01/10 04:12:49;;;;;;;27.15;13.77;;;-4.10;99.90;;;;;;5074811;28;20066;-39
2024/01/10 04:15:15;;;;;;;25.80;13.40;;;-4.10;99.90;;;;;;5075977;28;20052;-39
2024/01/10 04:17:41;;;;;;;27.42;14.23;;;-4.10;99.90;;;;;;5076000;28;20085;-39
2024/01/10 04:20:09;;;;;;;26.33;14.60;;;-4.10;99.90;;;;;;5076697;28;20089;-39
2024/01/10 04:22:35;;;;;;;25.65;14.18;;;-4.10;99.90;;;;;;5075903;28;20040;-39
2024/01/10 04:25:01;;;;;;;26.65;13.20;;;-4.20;99.90;;;;;;5075954;28;20399;-39
2024/01/10 04:27:27;;;;;;;24.67;13.25;;;-4.20;99.90;;;;;;5075759;28;20040;-39
2024/01/10 04:29:53;;;;;;;28.08;14.38;;;-4.20;99.90;;;;;;5075149;28;20499;-39
2024/01/10 04:32:20;;;;;;;24.15;14.60;;;-4.20;99.90;;;;;;5073780;28;20044;-39
2024/01/10 04:34:45;;;;;;;25.37;13.53;;;-4.30;99.90;;;;;;5075849;28;20044;-39
2024/01/10 04:37:11;;;;;;;25.33;14.00;;;-4.30;99.90;;;;;;5075742;28;20094;-39
2024/01/10 04:39:42;;;;;;;23.27;12.75;;;-4.30;99.90;;;;;;5075721;28;20135;-39
2024/01/10 04:42:08;;;;;;;21.77;12.13;;;-4.30;99.90;;;;;;5075823;28;20044;-39
2024/01/10 04:44:34;;;;;;;26.10;13.32;;;-4.30;99.90;;;;;;5074464;28;20059;-39
2024/01/10 04:47:00;;;;;;;26.05;13.15;;;-4.30;99.90;;;;;;5075232;28;20048;-39
2024/01/10 04:49:25;;;;;;;23.70;12.90;;;-4.30;99.90;;;;;;5074887;28;20044;-39
2024/01/10 04:51:51;;;;;;;25.08;12.18;;;-4.30;99.90;;;;;;5074399;28;20049;-39
2024/01/10 04:54:17;;;;;;;24.13;12.90;;;-4.30;99.90;;;;;;5075431;28;20098;-39
2024/01/10 04:56:43;;;;;;;24.35;14.50;;;-4.30;99.90;;;;;;5075326;28;20084;-39
2024/01/10 04:59:08;;;;;;;26.20;13.53;;;-4.30;99.90;;;;;;5075269;28;20099;-39
2024/01/10 05:01:34;;;;;;;27.07;13.43;;;-4.30;99.90;;;;;;5074995;28;20399;-39
2024/01/10 05:04:00;;;;;;;29.27;14.70;;;-4.30;99.90;;;;;;5075408;28;20123;-39
2024/01/10 05:06:26;;;;;;;26.45;14.73;;;-4.30;99.90;;;;;;5075213;28;20054;-39
2024/01/10 05:08:52;;;;;;;25.98;15.25;;;-4.30;99.90;;;;;;5075142;28;20080;-39
2024/01/10 05:11:17;;;;;;;25.25;14.05;;;-4.30;99.90;;;;;;5075027;28;20055;-39
2024/01/10 05:13:43;;;;;;;22.95;13.10;;;-4.30;99.90;;;;;;5073660;28;20062;-39
2024/01/10 05:16:09;;;;;;;22.45;12.57;;;-4.30;99.90;;;;;;5073237;28;20052;-39
2024/01/10 05:18:35;;;;;;;25.17;13.40;;;-4.30;99.90;;;;;;5074975;28;20041;-39
2024/01/10 05:21:01;;;;;;;25.50;14.32;;;-4.30;99.90;;;;;;5074884;28;20101;-39
2024/01/10 05:23:27;;;;;;;30.17;15.30;;;-4.30;99.90;;;;;;5074799;28;20043;-39
2024/01/10 05:25:53;;;;;;;25.77;14.00;;;-4.30;99.90;;;;;;5073686;28;20664;-39
2024/01/10 05:28:19;;;;;;;26.35;14.25;;;-4.30;99.90;;;;;;5074719;28;20045;-39
2024/01/10 05:30:45;;;;;;;27.83;14.55;;;-4.30;99.90;;;;;;5074584;28;20055;-39
2024/01/10 05:33:10;;;;;;;25.45;14.00;;;-4.20;99.90;;;;;;5074289;28;20037;-39
2024/01/10 05:35:38;;;;;;;26.85;15.15;;;-4.20;99.90;;;;;;5074409;28;20056;-39
2024/01/10 05:38:04;;;;;;;24.80;14.05;;;-4.20;99.90;;;;;;5074400;28;20054;-39
2024/01/10 05:40:32;;;;;;;25.35;13.68;;;-4.20;99.90;;;;;;5074364;28;20139;-39
2024/01/10 05:43:00;;;;;;;26.85;13.93;;;-4.20;99.90;;;;;;5074031;28;20404;-39
2024/01/10 05:45:27;;;;;;;24.58;14.68;;;-4.20;99.90;;;;;;5074270;28;20091;-39
2024/01/10 05:47:53;;;;;;;26.20;15.33;;;-4.20;99.90;;;;;;5074825;28;20091;-39
2024/01/10 05:50:19;;;;;;;24.67;14.25;;;-4.20;99.90;;;;;;5073296;28;20323;-39
2024/01/10 05:52:45;;;;;;;27.30;15.40;;;-4.20;99.90;;;;;;5074475;28;20052;-39
2024/01/10 05:55:11;;;;;;;27.33;14.27;;;-4.20;99.90;;;;;;5074122;28;20423;-39
2024/01/10 05:57:37;;;;;;;27.23;14.60;;;-4.30;99.90;;;;;;5074087;28;20056;-39
2024/01/10 06:00:04;;;;;;;24.00;13.55;;;-4.30;99.90;;;;;;5073816;28;20052;-39
2024/01/10 06:02:30;;;;;;;26.42;13.52;;;-4.30;99.90;;;;;;5074018;28;20055;-39
2024/01/10 06:04:56;;;;;;;27.48;15.38;;;-4.30;99.90;;;;;;5074033;28;20044;-39
2024/01/10 06:07:22;;;;;;;27.52;14.25;;;-4.30;99.90;;;;;;5073835;28;20063;-39
2024/01/10 06:09:47;;;;;;;25.63;13.65;;;-4.30;99.90;;;;;;5074050;28;20053;-39
2024/01/10 06:12:13;;;;;;;27.92;15.50;;;-4.30;99.90;;;;;;5073701;28;20045;-39
2024/01/10 06:14:39;;;;;;;23.65;13.45;;;-4.20;99.90;;;;;;5073473;28;20492;-39
2024/01/10 06:17:05;;;;;;;24.90;13.88;;;-4.30;99.90;;;;;;5073894;28;20048;-39
2024/01/10 06:19:31;;;;;;;23.60;13.25;;;-4.20;99.90;;;;;;5073833;28;20127;-39
2024/01/10 06:21:58;;;;;;;24.73;14.25;;;-4.20;99.90;;;;;;5073889;28;20128;-39
2024/01/10 06:24:24;;;;;;;25.73;14.88;;;-4.20;99.90;;;;;;5072835;28;20059;-39
2024/01/10 06:26:50;;;;;;;25.15;13.65;;;-4.20;99.90;;;;;;5073631;28;20044;-39
2024/01/10 06:29:16;;;;;;;25.38;13.13;;;-4.20;99.90;;;;;;5073536;28;20066;-39
2024/01/10 06:31:42;;;;;;;25.83;13.65;;;-4.30;99.90;;;;;;5055906;28;20051;-39
2024/01/10 06:34:08;;;;;;;26.20;14.10;;;-4.30;99.90;;;;;;5072551;28;20109;-39
2024/01/10 06:36:34;;;;;;;25.48;14.38;;;-4.30;99.90;;;;;;5073669;28;20443;-39
2024/01/10 06:39:00;;;;;;;28.08;13.98;;;-4.40;99.90;;;;;;5073666;28;20150;-39
2024/01/10 06:41:26;;;;;;;22.75;13.15;;;-4.30;99.90;;;;;;5073565;28;20056;-39
2024/01/10 06:43:54;;;;;;;24.67;13.55;;;-4.30;99.90;;;;;;5073370;28;20048;-39
2024/01/10 06:46:20;;;;;;;25.33;14.20;;;-4.40;99.90;;;;;;5072751;28;20045;-39
2024/01/10 06:48:47;;;;;;;24.33;13.45;;;-4.30;99.90;;;;;;5073530;28;20105;-39
2024/01/10 06:51:13;;;;;;;25.63;12.95;;;-4.30;99.90;;;;;;5073469;28;20048;-39
2024/01/10 06:53:40;;;;;;;24.75;13.55;;;-4.30;99.90;;;;;;5073775;28;20472;-39
2024/01/10 06:56:07;;;;;;;26.02;13.65;;;-4.30;99.90;;;;;;5076494;28;20052;-39
2024/01/10 06:58:33;;;;;;;25.23;14.25;;;-4.30;99.90;;;;;;5076434;28;20363;-39
2024/01/10 07:01:04;;;;;;;25.13;14.07;;;-4.40;99.90;;;;;;5077550;28;20051;-39
2024/01/10 07:03:31;;;;;;;24.73;13.52;;;-4.30;99.90;;;;;;5077467;28;20120;-39
2024/01/10 07:05:57;;;;;;;23.38;12.98;;;-4.40;99.90;;;;;;5077302;28;20123;-39
2024/01/10 07:08:22;;;;;;;24.50;13.20;;;-4.40;99.90;;;;;;5076376;28;20471;-38
2024/01/10 07:10:48;;;;;;;27.05;14.23;;;-4.40;99.90;;;;;;5077157;28;20070;-39
2024/01/10 07:13:14;;;;;;;25.85;14.32;;;-4.50;99.90;;;;;;5077303;28;20430;-39
2024/01/10 07:15:39;;;;;;;25.50;13.82;;;-4.50;99.90;;;;;;5077058;28;20169;-39
2024/01/10 07:18:06;;;;;;;26.02;13.60;;;-4.50;99.90;;;;;;5077162;28;20082;-39
2024/01/10 07:20:32;;;;;;;22.38;12.88;;;-4.40;99.90;;;;;;5077088;28;20487;-39
2024/01/10 07:22:59;;;;;;;23.83;12.95;;;-4.50;99.90;;;;;;5075996;28;20556;-39
2024/01/10 07:25:25;;;;;;;25.05;12.73;;;-4.50;99.90;;;;;;5076913;28;20049;-39
2024/01/10 07:27:51;;;;;;;26.55;13.70;;;-4.50;99.90;;;;;;5077071;28;20472;-39
2024/01/10 07:30:17;;;;;;;23.88;13.15;;;-4.50;99.90;;;;;;5076988;28;20052;-43
2024/01/10 07:32:44;;;;;;;26.15;12.88;;;-4.50;99.90;;;;;;5077119;28;20041;-39
2024/01/10 07:35:11;;;;;;;25.33;13.07;;;-4.50;99.90;;;;;;5076938;28;20049;-39
2024/01/10 07:37:37;;;;;;;23.27;12.55;;;-4.50;99.90;;;;;;5076632;28;20073;-39
2024/01/10 07:40:06;;;;;;;24.08;12.75;;;-4.60;99.90;;;;;;5075440;28;20090;-39
2024/01/10 07:42:32;;;;;;;23.88;12.40;;;-4.60;99.90;;;;;;5076756;28;20054;-39
2024/01/10 07:44:58;;;;;;;26.65;13.02;;;-4.60;99.90;;;;;;5075537;28;20391;-39
2024/01/10 07:47:24;;;;;;;25.92;12.63;;;-4.60;99.90;;;;;;5076676;28;20127;-39
2024/01/10 07:49:49;;;;;;;26.67;13.90;;;-4.60;99.90;;;;;;5076508;28;20044;-39
2024/01/10 07:52:16;;;;;;;24.52;12.25;;;-4.60;99.90;;;;;;5076412;28;20369;-39
2024/01/10 07:54:42;;;;;;;27.42;12.98;;;-4.60;99.90;;;;;;5076303;28;20491;-39
2024/01/10 07:57:07;;;;;;;23.52;11.88;;;-4.60;99.90;;;;;;5075408;28;20131;-39
2024/01/10 07:59:33;;;;;;;24.55;10.88;;;-4.60;99.90;;;;;;5076437;28;20094;-39
2024/01/10 08:02:00;;;;;;;26.92;11.88;;;-4.60;99.90;;;;;;5075209;28;20087;-39
2024/01/10 08:04:29;;;;;;;26.83;12.48;;;-4.60;99.90;;;;;;5076095;28;20048;-39
2024/01/10 08:06:55;;;;;;;26.60;11.57;;;-4.60;99.90;;;;;;5076143;28;20060;-39
2024/01/10 08:09:23;;;;;;;26.08;12.15;;;-4.50;99.90;;;;;;5075973;28;20044;-39
2024/01/10 08:11:49;;;;;;;24.20;11.15;;;-4.50;99.90;;;;;;5076626;28;20410;-39
2024/01/10 08:14:16;;;;;;;27.10;12.23;;;-4.50;99.90;;;;;;5075908;28;20060;-39
2024/01/10 08:16:41;;;;;;;26.15;12.48;;;-4.50;99.90;;;;;;5076302;28;20071;-39
2024/01/10 08:19:08;;;;;;;26.58;11.57;;;-4.50;99.90;;;;;;5076011;28;20056;-39
2024/01/10 08:21:34;;;;;;;26.73;12.45;;;-4.50;99.90;;;;;;5075852;28;20066;-39
2024/01/10 08:24:02;;;;;;;26.33;11.15;;;-4.50;99.90;;;;;;5074511;28;20044;-39
2024/01/10 08:26:28;;;;;;;31.20;11.13;;;-4.40;99.90;;;;;;5075959;28;20098;-39
2024/01/10 08:28:54;;;;;;;26.02;10.85;;;-4.40;99.90;;;;;;5075834;28;20052;-39
2024/01/10 08:31:19;;;;;;;26.93;10.83;;;-4.40;99.90;;;;;;5075883;28;20040;-39
2024/01/10 08:33:46;;;;;;;25.70;10.77;;;-4.40;99.90;;;;;;5075795;28;20090;-39
2024/01/10 08:36:14;;;;;;;31.15;11.68;;;-4.40;99.90;;;;;;5074592;28;20040;-39
2024/01/10 08:38:41;;;;;;;26.70;11.43;;;-4.40;99.90;;;;;;5075713;28;20045;-39
2024/01/10 08:41:11;;;;;;;27.25;11.45;;;-4.40;99.90;;;;;;5075710;28;20102;-39
2024/01/10 08:43:37;;;;;;;24.63;10.55;;;-4.40;99.90;;;;;;5075820;28;20044;-39
2024/01/10 08:46:03;;;;;;;25.13;11.47;;;-4.30;99.90;;;;;;5075572;28;20049;-39
2024/01/10 08:48:29;;;;;;;25.90;9.67;;;-4.30;99.90;;;;;;5075395;28;20044;-39
2024/01/10 08:50:56;;;;;;;23.42;10.48;;;-4.30;99.90;;;;;;5075382;28;20071;-39
2024/01/10 08:53:22;;;;;;;26.90;10.88;;;-4.20;99.90;;;;;;5075417;28;20123;-39
2024/01/10 08:55:48;;;;;;;25.75;8.88;;;-4.20;99.90;;;;;;5075388;28;20044;-38
2024/01/10 08:58:14;;;;;;;25.92;9.85;;;-4.20;99.90;;;;;;5075655;28;20041;-39
2024/01/10 09:00:39;;;;;;;25.60;9.80;;;-4.10;99.90;;;;;;5075273;28;20052;-39
2024/01/10 09:03:05;;;;;;;28.23;9.82;;;-4.10;99.90;;;;;;5075278;28;20503;-39
2024/01/10 09:05:32;;;;;;;22.88;9.45;;;-4.00;99.90;;;;;;5075015;28;20055;-39
2024/01/10 09:07:58;;;;;;;24.75;9.88;;;-4.00;99.90;;;;;;5074194;28;20048;-39
2024/01/10 09:10:24;;;;;;;26.38;9.82;;;-4.00;99.90;;;;;;5075101;28;20051;-39
2024/01/10 09:12:50;;;;;;;23.63;9.23;;;-4.00;99.90;;;;;;5075317;28;20054;-39
2024/01/10 09:15:15;;;;;;;24.23;9.52;;;-3.90;99.90;;;;;;5075239;28;20053;-38
2024/01/10 09:17:42;;;;;;;24.17;8.77;;;-3.90;99.90;;;;;;5072904;28;20056;-39
2024/01/10 09:20:08;;;;;;;24.00;8.65;;;-3.90;99.90;;;;;;5074636;28;20040;-39
2024/01/10 09:22:34;;;;;;;22.75;8.60;;;-3.80;99.90;;;;;;5090800;28;20431;-39
2024/01/10 09:25:05;;;;;;;24.35;10.52;;;-3.80;99.90;;;;;;5074757;28;20155;-39
2024/01/10 09:27:32;;;;;;;23.25;9.20;;;-3.80;99.90;;;;;;5057544;28;20056;-39
2024/01/10 09:29:57;;;;;;;24.85;10.35;;;-3.70;99.90;;;;;;5074642;28;20048;-39
2024/01/10 09:32:23;;;;;;;22.00;9.38;;;-3.70;99.90;;;;;;5073347;28;20048;-39
2024/01/10 09:34:49;;;;;;;27.08;11.23;;;-3.70;99.90;;;;;;5074274;28;20044;-39
2024/01/10 09:37:14;;;;;;;27.27;10.27;;;-3.70;99.90;;;;;;5074693;28;20088;-39
2024/01/10 09:39:40;;;;;;;25.30;10.25;;;-3.60;99.90;;;;;;5074830;28;20113;-39
2024/01/10 09:42:06;;;;;;;23.17;9.32;;;-3.60;99.90;;;;;;5074406;28;20384;-39
2024/01/10 09:44:33;;;;;;;21.90;9.45;;;-3.60;99.90;;;;;;5074520;28;20090;-39
2024/01/10 09:47:00;;;;;;;24.15;9.32;;;-3.50;99.90;;;;;;5074279;28;20036;-39
2024/01/10 09:49:26;;;;;;;;;;;-3.50;99.90;;;;;;5074506;28;20557;-39
2024/01/10 09:51:57;;;;;;;20.40;7.78;;;-3.50;99.90;;;;;;5074480;28;19979;-38
2024/01/10 09:54:25;;;;;;;22.25;9.80;;;-3.50;99.90;;;;;;5074477;28;20084;-39
2024/01/10 09:56:53;;;;;;;25.33;10.05;;;-3.40;99.90;;;;;;5074233;28;20048;-39
2024/01/10 09:59:18;;;;;;;25.55;8.85;;;-3.40;99.90;;;;;;5074079;28;20045;-39
2024/01/10 10:01:44;;;;;;;25.42;9.65;;;-3.40;99.90;;;;;;5073978;28;20127;-39
2024/01/10 10:04:12;;;;;;;25.73;10.02;;;-3.30;99.90;;;;;;5073925;28;20036;-39
2024/01/10 10:06:38;;;;;;;27.13;10.02;;;-3.30;99.90;;;;;;5074125;28;20045;-38
2024/01/10 10:09:04;;;;;;;23.30;10.02;;;-3.20;99.90;;;;;;5072781;28;20368;-38
2024/01/10 10:11:30;;;;;;;20.70;8.55;;;-3.20;99.90;;;;;;5073942;28;20105;-38
2024/01/10 10:13:56;;;;;;;23.42;10.40;;;-3.20;99.90;;;;;;5073827;28;20044;-38
2024/01/10 10:16:27;;;;;;;23.30;9.13;;;-3.10;99.90;;;;;;5073617;28;20561;-38
2024/01/10 10:18:57;;;;;;;24.50;8.75;;;-3.10;99.90;;;;;;5074042;28;20044;-38
2024/01/10 10:21:25;;;;;;;21.02;9.45;;;-3.00;99.90;;;;;;5072796;28;20132;-38
2024/01/10 10:23:59;;;;;;;20.60;9.20;;;-3.00;99.90;;;;;;5073837;28;20468;-38
2024/01/10 10:26:27;;;;;;;22.92;8.88;;;-2.90;99.90;;;;;;5072554;28;20097;-38
2024/01/10 10:28:53;;;;;;;21.95;9.45;;;-2.90;99.90;;;;;;5073542;28;20551;-39
2024/01/10 10:31:19;;;;;;;22.05;9.15;;;-2.80;99.90;;;;;;5073574;28;20094;-38
2024/01/10 10:33:48;;;;;;;23.13;10.38;;;-2.80;99.90;;;;;;5073612;28;20137;-39
2024/01/10 10:36:14;;;;;;;19.50;8.80;;;-2.70;99.90;;;;;;5073703;28;20044;-38
2024/01/10 10:38:40;;;;;;;21.13;9.43;;;-2.70;99.90;;;;;;5073562;28;20479;-38
2024/01/10 10:41:12;;;;;;;21.60;9.53;;;-2.70;99.90;;;;;;5073509;28;20055;-39
2024/01/10 10:43:39;;;;;;;19.38;8.50;;;-2.60;99.90;;;;;;5073429;28;20440;-39
2024/01/10 10:46:06;;;;;;;22.60;8.90;;;-2.60;99.90;;;;;;5073608;28;20044;-39
2024/01/10 10:48:36;;;;;;;19.77;8.32;;;-2.60;99.90;;;;;;5073869;28;20071;-39
2024/01/10 10:51:08;;;;;;;18.95;8.70;;;-2.50;99.90;;;;;;5073779;28;20052;-39
2024/01/10 10:53:35;;;;;;;19.45;7.80;;;-2.50;99.90;;;;;;5073529;28;20057;-39
2024/01/10 10:56:04;;;;;;;20.48;8.43;;;-2.40;99.90;;;;;;5073223;28;20384;-39
2024/01/10 10:58:37;;;;;;;23.45;8.18;;;-2.40;99.90;;;;;;5073160;28;20487;-39
2024/01/10 11:01:08;;;;;;;20.20;8.80;;;-2.40;99.90;;;;;;5073685;28;20058;-39
2024/01/10 11:03:36;;;;;;;19.70;8.32;;;-2.40;99.90;;;;;;5073405;28;20056;-38
2024/01/10 11:06:03;;;;;;;18.63;8.27;;;-2.40;99.90;;;;;;5073509;28;20045;-38
2024/01/10 11:08:35;;;;;;;16.17;6.97;;;-2.30;99.90;;;;;;5072269;28;20065;-38
2024/01/10 11:11:04;;;;;;;16.95;7.47;;;-2.30;99.90;;;;;;5073309;28;20044;-38
2024/01/10 11:14:13;;;;;;;18.02;7.22;;;-2.20;99.90;;;;;;5073584;28;20044;-38
2024/01/10 11:16:38;;;;;;;17.70;7.30;;;-2.10;99.90;;;;;;5051036;28;20488;-38
2024/01/10 11:19:33;;;;;;;14.05;6.13;;;-2.10;99.90;;;;;;5051082;28;20049;-38
2024/01/10 11:22:50;;;;;;;16.90;7.00;;;-2.00;99.90;;;;;;5066811;28;20056;-38
2024/01/10 11:25:17;;;;;;;13.88;6.05;;;-1.90;99.90;;;;;;5063879;28;20048;-38
2024/01/10 11:27:43;;;;;;;14.75;6.07;;;-1.80;99.90;;;;;;5073062;28;20048;-38
2024/01/10 11:30:11;;;;;;;14.00;6.00;;;-1.80;99.90;;;;;;5072871;28;20051;-38
2024/01/10 11:32:37;;;;;;;14.90;6.03;;;-1.70;99.90;;;;;;5072874;28;20041;-38
2024/01/10 11:35:19;;;;;;;15.70;5.87;;;-1.70;99.90;;;;;;5072099;28;20058;-38
2024/01/10 11:37:47;;;;;;;15.38;6.70;;;-1.70;99.90;;;;;;5072728;28;20091;-38
2024/01/10 11:40:13;;;;;;;15.70;6.78;;;-1.60;99.90;;;;;;5072390;28;20099;-38
2024/01/10 11:42:43;;;;;;;16.73;6.50;;;-1.60;99.90;;;;;;5076730;28;20045;-38
2024/01/10 11:45:09;;;;;;;15.43;6.43;;;-1.60;99.90;;;;;;5076760;28;20052;-38
2024/01/10 11:47:38;;;;;;;15.93;7.20;;;-1.60;99.90;;;;;;5076540;28;20078;-38
2024/01/10 11:50:07;;;;;;;15.80;6.03;;;-1.60;99.90;;;;;;5076592;28;20044;-38
2024/01/10 11:52:36;;;;;;;15.23;6.97;;;-1.50;99.90;;;;;;5075370;28;20135;-38
2024/01/10 11:55:04;;;;;;;14.98;5.90;;;-1.50;99.90;;;;;;5076516;28;20044;-38
2024/01/10 11:57:33;;;;;;;16.45;7.10;;;-1.50;99.90;;;;;;5076330;28;20491;-38
2024/01/10 12:00:02;;;;;;;18.08;6.90;;;-1.50;99.90;;;;;;5076496;28;20045;-38
2024/01/10 12:02:29;;;;;;;16.45;7.32;;;-1.50;99.90;;;;;;5076273;28;20080;-38
2024/01/10 12:04:55;;;;;;;16.05;6.40;;;-1.50;99.90;;;;;;5076286;28;20052;-38
2024/01/10 12:07:21;;;;;;;18.85;7.03;;;-1.50;99.90;;;;;;5076035;28;20045;-38
2024/01/10 12:09:47;;;;;;;16.23;7.22;;;-1.50;99.90;;;;;;5076258;28;20063;-38
2024/01/10 12:12:14;;;;;;;17.67;7.18;;;-1.40;99.90;;;;;;5076031;28;20452;-38
2024/01/10 12:14:41;;;;;;;16.65;6.82;;;-1.40;99.90;;;;;;5075971;28;20060;-38
2024/01/10 12:17:09;;;;;;;16.65;7.22;;;-1.40;99.90;;;;;;5076180;28;20058;-38
2024/01/10 12:19:37;;;;;;;15.23;6.97;;;-1.40;99.90;;;;;;5075964;28;20048;-38
2024/01/10 12:22:05;;;;;;;16.05;6.68;;;-1.30;99.90;;;;;;5075156;28;20048;-38
2024/01/10 12:24:31;;;;;;;15.95;6.85;;;-1.30;99.90;;;;;;5075961;28;20493;-38
2024/01/10 12:26:57;;;;;;;16.00;6.10;;;-1.30;99.90;;;;;;5075935;28;20147;-38
2024/01/10 12:29:24;;;;;;;17.67;6.75;;;-1.20;99.90;;;;;;5074715;28;20132;-38